sensor_id;sensor_type;location;lat;lon;timestamp;temperature;humidity
423;DHT22;198;48.752;9.180;2023-09-19T00:00:45;17.00;99.90
423;DHT22;198;48.752;9.180;2023-09-19T00:03:12;17.00;99.90
423;DHT22;198;48.752;9.180;2023-09-19T00:05:38;17.10;99.90
423;DHT22;198;48.752;9.180;2023-09-19T00:08:04;17.00;99.90
423;DHT22;198;48.752;9.180;2023-09-19T00:10:30;17.00;99.90
423;DHT22;198;48.752;9.180;2023-09-19T00:13:00;17.00;99.90
423;DHT22;198;48.752;9.180;2023-09-19T00:15:30;16.90;99.90
423;DHT22;198;48.752;9.180;2023-09-19T00:17:58;17.00;99.90
423;DHT22;198;48.752;9.180;2023-09-19T00:20:24;17.00;99.90
423;DHT22;198;48.752;9.180;2023-09-19T00:22:50;16.90;99.90
423;DHT22;198;48.752;9.180;2023-09-19T00:25:17;16.90;99.90
423;DHT22;198;48.752;9.180;2023-09-19T00:27:43;16.90;99.90
423;DHT22;198;48.752;9.180;2023-09-19T00:30:11;16.80;99.90
423;DHT22;198;48.752;9.180;2023-09-19T00:32:47;16.80;99.90
423;DHT22;198;48.752;9.180;2023-09-19T00:35:15;16.80;99.90
423;DHT22;198;48.752;9.180;2023-09-19T00:37:41;16.90;99.90
423;DHT22;198;48.752;9.180;2023-09-19T00:40:10;16.80;99.90
423;DHT22;198;48.752;9.180;2023-09-19T00:42:41;16.80;99.90
423;DHT22;198;48.752;9.180;2023-09-19T00:45:08;16.80;99.90
423;DHT22;198;48.752;9.180;2023-09-19T00:47:36;16.80;99.90
423;DHT22;198;48.752;9.180;2023-09-19T00:50:03;16.90;99.90
423;DHT22;198;48.752;9.180;2023-09-19T00:52:30;16.80;99.90
423;DHT22;198;48.752;9.180;2023-09-19T00:54:57;16.90;99.90
423;DHT22;198;48.752;9.180;2023-09-19T00:57:23;16.90;99.90
423;DHT22;198;48.752;9.180;2023-09-19T00:59:50;16.90;99.90
423;DHT22;198;48.752;9.180;2023-09-19T01:02:19;16.90;99.90
423;DHT22;198;48.752;9.180;2023-09-19T01:04:45;16.90;99.90
423;DHT22;198;48.752;9.180;2023-09-19T01:07:11;16.90;99.90
423;DHT22;198;48.752;9.180;2023-09-19T01:09:36;16.90;99.90
423;DHT22;198;48.752;9.180;2023-09-19T01:12:04;16.90;99.90
423;DHT22;198;48.752;9.180;2023-09-19T01:14:42;16.80;99.90
423;DHT22;198;48.752;9.180;2023-09-19T01:17:22;16.90;99.90
423;DHT22;198;48.752;9.180;2023-09-19T01:23:11;16.90;99.90
423;DHT22;198;48.752;9.180;2023-09-19T01:26:03;16.80;99.90
423;DHT22;198;48.752;9.180;2023-09-19T01:28:54;16.80;99.90
423;DHT22;198;48.752;9.180;2023-09-19T01:31:28;16.90;99.90
423;DHT22;198;48.752;9.180;2023-09-19T01:34:01;16.90;99.90
423;DHT22;198;48.752;9.180;2023-09-19T01:36:31;16.90;99.90
423;DHT22;198;48.752;9.180;2023-09-19T01:38:59;17.00;99.90
423;DHT22;198;48.752;9.180;2023-09-19T01:41:44;17.00;99.90
423;DHT22;198;48.752;9.180;2023-09-19T01:44:17;17.00;99.90
423;DHT22;198;48.752;9.180;2023-09-19T01:46:47;17.00;99.90
423;DHT22;198;48.752;9.180;2023-09-19T01:49:37;17.10;99.90
423;DHT22;198;48.752;9.180;2023-09-19T01:54:46;17.10;99.90
423;DHT22;198;48.752;9.180;2023-09-19T01:59:54;17.20;99.90
423;DHT22;198;48.752;9.180;2023-09-19T02:02:23;17.20;99.90
423;DHT22;198;48.752;9.180;2023-09-19T02:04:50;17.20;99.90
423;DHT22;198;48.752;9.180;2023-09-19T02:07:16;17.20;99.90
423;DHT22;198;48.752;9.180;2023-09-19T02:09:42;17.20;99.90
423;DHT22;198;48.752;9.180;2023-09-19T02:12:09;17.10;99.90
423;DHT22;198;48.752;9.180;2023-09-19T02:14:34;17.00;99.90
423;DHT22;198;48.752;9.180;2023-09-19T02:17:04;17.00;99.90
423;DHT22;198;48.752;9.180;2023-09-19T02:19:36;17.00;99.90
423;DHT22;198;48.752;9.180;2023-09-19T02:22:04;16.90;99.90
423;DHT22;198;48.752;9.180;2023-09-19T02:24:38;16.90;99.90
423;DHT22;198;48.752;9.180;2023-09-19T02:27:05;16.80;99.90
423;DHT22;198;48.752;9.180;2023-09-19T02:29:31;16.80;99.90
423;DHT22;198;48.752;9.180;2023-09-19T02:31:56;16.80;99.90
423;DHT22;198;48.752;9.180;2023-09-19T02:34:22;16.70;99.90
423;DHT22;198;48.752;9.180;2023-09-19T02:36:48;16.70;99.90
423;DHT22;198;48.752;9.180;2023-09-19T02:39:14;16.60;99.90
423;DHT22;198;48.752;9.180;2023-09-19T02:41:39;16.60;99.90
423;DHT22;198;48.752;9.180;2023-09-19T02:44:07;16.50;99.90
423;DHT22;198;48.752;9.180;2023-09-19T02:46:35;16.50;99.90
423;DHT22;198;48.752;9.180;2023-09-19T02:49:02;16.50;99.90
423;DHT22;198;48.752;9.180;2023-09-19T02:51:30;16.40;99.90
423;DHT22;198;48.752;9.180;2023-09-19T02:53:56;16.30;99.90
423;DHT22;198;48.752;9.180;2023-09-19T02:56:21;16.30;99.90
423;DHT22;198;48.752;9.180;2023-09-19T02:58:47;16.30;99.90
423;DHT22;198;48.752;9.180;2023-09-19T03:01:13;16.30;99.90
423;DHT22;198;48.752;9.180;2023-09-19T03:03:40;16.40;99.90
423;DHT22;198;48.752;9.180;2023-09-19T03:06:06;16.40;99.90
423;DHT22;198;48.752;9.180;2023-09-19T03:08:34;16.40;99.90
423;DHT22;198;48.752;9.180;2023-09-19T03:11:03;16.50;99.90
423;DHT22;198;48.752;9.180;2023-09-19T03:13:33;16.50;99.90
423;DHT22;198;48.752;9.180;2023-09-19T03:15:59;16.60;99.90
423;DHT22;198;48.752;9.180;2023-09-19T03:18:25;16.60;99.90
423;DHT22;198;48.752;9.180;2023-09-19T03:20:58;16.60;99.90
423;DHT22;198;48.752;9.180;2023-09-19T03:23:27;16.60;99.90
423;DHT22;198;48.752;9.180;2023-09-19T03:25:54;16.70;99.90
423;DHT22;198;48.752;9.180;2023-09-19T03:28:20;16.60;99.90
423;DHT22;198;48.752;9.180;2023-09-19T03:31:00;16.70;99.90
423;DHT22;198;48.752;9.180;2023-09-19T03:33:26;16.80;99.90
423;DHT22;198;48.752;9.180;2023-09-19T03:35:54;16.80;99.90
423;DHT22;198;48.752;9.180;2023-09-19T03:38:20;16.80;99.90
423;DHT22;198;48.752;9.180;2023-09-19T03:40:47;16.90;99.90
423;DHT22;198;48.752;9.180;2023-09-19T03:43:13;16.90;99.90
423;DHT22;198;48.752;9.180;2023-09-19T03:45:38;16.80;99.90
423;DHT22;198;48.752;9.180;2023-09-19T03:48:10;16.80;99.90
423;DHT22;198;48.752;9.180;2023-09-19T03:50:36;16.80;99.90
423;DHT22;198;48.752;9.180;2023-09-19T03:53:02;16.80;99.90
423;DHT22;198;48.752;9.180;2023-09-19T03:55:28;16.80;99.90
423;DHT22;198;48.752;9.180;2023-09-19T03:57:55;16.90;99.90
423;DHT22;198;48.752;9.180;2023-09-19T04:00:21;16.80;99.90
423;DHT22;198;48.752;9.180;2023-09-19T04:02:49;16.80;99.90
423;DHT22;198;48.752;9.180;2023-09-19T04:05:14;16.80;99.90
423;DHT22;198;48.752;9.180;2023-09-19T04:07:40;16.80;99.90
423;DHT22;198;48.752;9.180;2023-09-19T04:10:06;16.80;99.90
423;DHT22;198;48.752;9.180;2023-09-19T04:12:34;16.80;99.90
423;DHT22;198;48.752;9.180;2023-09-19T04:14:59;16.60;99.90
423;DHT22;198;48.752;9.180;2023-09-19T04:17:25;16.60;99.90
423;DHT22;198;48.752;9.180;2023-09-19T04:19:51;16.50;99.90
423;DHT22;198;48.752;9.180;2023-09-19T04:22:16;16.50;99.90
423;DHT22;198;48.752;9.180;2023-09-19T04:24:42;16.50;99.90
423;DHT22;198;48.752;9.180;2023-09-19T04:27:08;16.50;99.90
423;DHT22;198;48.752;9.180;2023-09-19T04:29:35;16.40;99.90
423;DHT22;198;48.752;9.180;2023-09-19T04:32:00;16.40;99.90
423;DHT22;198;48.752;9.180;2023-09-19T04:34:26;16.40;99.90
423;DHT22;198;48.752;9.180;2023-09-19T04:36:52;16.40;99.90
423;DHT22;198;48.752;9.180;2023-09-19T04:39:18;16.40;99.90
423;DHT22;198;48.752;9.180;2023-09-19T04:41:43;16.50;99.90
423;DHT22;198;48.752;9.180;2023-09-19T04:44:10;16.50;99.90
423;DHT22;198;48.752;9.180;2023-09-19T04:46:35;16.40;99.90
423;DHT22;198;48.752;9.180;2023-09-19T04:49:01;16.50;99.90
423;DHT22;198;48.752;9.180;2023-09-19T04:51:30;16.50;99.90
423;DHT22;198;48.752;9.180;2023-09-19T04:54:00;16.50;99.90
423;DHT22;198;48.752;9.180;2023-09-19T04:56:25;16.60;99.90
423;DHT22;198;48.752;9.180;2023-09-19T04:58:51;16.60;99.90
423;DHT22;198;48.752;9.180;2023-09-19T05:01:16;16.70;99.90
423;DHT22;198;48.752;9.180;2023-09-19T05:03:42;16.80;99.90
423;DHT22;198;48.752;9.180;2023-09-19T05:06:07;16.80;99.90
423;DHT22;198;48.752;9.180;2023-09-19T05:08:33;16.80;99.90
423;DHT22;198;48.752;9.180;2023-09-19T05:11:01;16.80;99.90
423;DHT22;198;48.752;9.180;2023-09-19T05:13:27;16.90;99.90
423;DHT22;198;48.752;9.180;2023-09-19T05:15:53;16.80;99.90
423;DHT22;198;48.752;9.180;2023-09-19T05:18:18;16.80;99.90
423;DHT22;198;48.752;9.180;2023-09-19T05:20:44;16.80;99.90
423;DHT22;198;48.752;9.180;2023-09-19T05:23:09;16.80;99.90
423;DHT22;198;48.752;9.180;2023-09-19T05:25:38;16.70;99.90
423;DHT22;198;48.752;9.180;2023-09-19T05:28:10;16.80;99.90
423;DHT22;198;48.752;9.180;2023-09-19T05:30:37;16.80;99.90
423;DHT22;198;48.752;9.180;2023-09-19T05:33:04;16.80;99.90
423;DHT22;198;48.752;9.180;2023-09-19T05:35:30;16.70;99.90
423;DHT22;198;48.752;9.180;2023-09-19T05:37:57;16.80;99.90
423;DHT22;198;48.752;9.180;2023-09-19T05:40:24;16.80;99.90
423;DHT22;198;48.752;9.180;2023-09-19T05:42:50;16.80;99.90
423;DHT22;198;48.752;9.180;2023-09-19T05:45:18;16.80;99.90
423;DHT22;198;48.752;9.180;2023-09-19T05:47:50;16.90;99.90
423;DHT22;198;48.752;9.180;2023-09-19T05:50:17;17.00;99.90
423;DHT22;198;48.752;9.180;2023-09-19T05:52:43;17.00;99.90
423;DHT22;198;48.752;9.180;2023-09-19T05:55:17;17.10;99.90
423;DHT22;198;48.752;9.180;2023-09-19T05:57:43;17.10;99.90
423;DHT22;198;48.752;9.180;2023-09-19T06:00:08;17.10;99.90
423;DHT22;198;48.752;9.180;2023-09-19T06:02:39;17.10;99.90
423;DHT22;198;48.752;9.180;2023-09-19T06:05:06;17.10;99.90
423;DHT22;198;48.752;9.180;2023-09-19T06:07:32;16.90;99.90
423;DHT22;198;48.752;9.180;2023-09-19T06:10:04;16.80;99.90
423;DHT22;198;48.752;9.180;2023-09-19T06:12:38;16.70;99.90
423;DHT22;198;48.752;9.180;2023-09-19T06:15:04;16.70;99.90
423;DHT22;198;48.752;9.180;2023-09-19T06:17:49;16.60;99.90
423;DHT22;198;48.752;9.180;2023-09-19T06:20:16;16.70;99.90
423;DHT22;198;48.752;9.180;2023-09-19T06:22:42;16.60;99.90
423;DHT22;198;48.752;9.180;2023-09-19T06:25:12;16.70;99.90
423;DHT22;198;48.752;9.180;2023-09-19T06:27:53;16.70;99.90
423;DHT22;198;48.752;9.180;2023-09-19T06:30:21;16.70;99.90
423;DHT22;198;48.752;9.180;2023-09-19T06:32:47;16.70;99.90
423;DHT22;198;48.752;9.180;2023-09-19T06:35:15;16.70;99.90
423;DHT22;198;48.752;9.180;2023-09-19T06:37:42;16.80;99.90
423;DHT22;198;48.752;9.180;2023-09-19T06:40:12;16.90;99.90
423;DHT22;198;48.752;9.180;2023-09-19T06:42:44;17.00;99.90
423;DHT22;198;48.752;9.180;2023-09-19T06:45:14;17.10;99.90
423;DHT22;198;48.752;9.180;2023-09-19T06:47:43;17.20;99.90
423;DHT22;198;48.752;9.180;2023-09-19T06:50:10;17.30;99.90
423;DHT22;198;48.752;9.180;2023-09-19T06:52:40;17.30;99.90
423;DHT22;198;48.752;9.180;2023-09-19T06:55:06;17.50;99.90
423;DHT22;198;48.752;9.180;2023-09-19T06:57:32;17.60;99.90
423;DHT22;198;48.752;9.180;2023-09-19T06:59:57;17.70;99.90
423;DHT22;198;48.752;9.180;2023-09-19T07:02:23;17.80;99.90
423;DHT22;198;48.752;9.180;2023-09-19T07:04:48;17.90;99.90
423;DHT22;198;48.752;9.180;2023-09-19T07:07:15;18.10;99.90
423;DHT22;198;48.752;9.180;2023-09-19T07:09:41;18.20;99.90
423;DHT22;198;48.752;9.180;2023-09-19T07:12:07;18.30;99.90
423;DHT22;198;48.752;9.180;2023-09-19T07:14:33;18.40;99.90
423;DHT22;198;48.752;9.180;2023-09-19T07:16:58;18.30;99.90
423;DHT22;198;48.752;9.180;2023-09-19T07:19:27;18.30;99.90
423;DHT22;198;48.752;9.180;2023-09-19T07:21:54;18.30;99.90
423;DHT22;198;48.752;9.180;2023-09-19T07:24:19;18.30;99.90
423;DHT22;198;48.752;9.180;2023-09-19T07:26:47;18.40;99.90
423;DHT22;198;48.752;9.180;2023-09-19T07:29:13;18.40;99.90
423;DHT22;198;48.752;9.180;2023-09-19T07:31:39;18.40;99.90
423;DHT22;198;48.752;9.180;2023-09-19T07:34:04;18.30;99.90
423;DHT22;198;48.752;9.180;2023-09-19T07:36:33;18.40;99.90
423;DHT22;198;48.752;9.180;2023-09-19T07:38:59;18.40;99.90
423;DHT22;198;48.752;9.180;2023-09-19T07:41:25;18.50;99.90
423;DHT22;198;48.752;9.180;2023-09-19T07:43:51;18.50;99.90
423;DHT22;198;48.752;9.180;2023-09-19T07:46:17;18.50;99.90
423;DHT22;198;48.752;9.180;2023-09-19T07:48:42;18.60;99.90
423;DHT22;198;48.752;9.180;2023-09-19T07:51:13;18.60;99.90
423;DHT22;198;48.752;9.180;2023-09-19T07:53:41;18.60;99.90
423;DHT22;198;48.752;9.180;2023-09-19T07:56:09;18.60;99.90
423;DHT22;198;48.752;9.180;2023-09-19T07:58:35;18.70;99.90
423;DHT22;198;48.752;9.180;2023-09-19T08:01:06;18.80;99.90
423;DHT22;198;48.752;9.180;2023-09-19T08:03:32;18.80;99.90
423;DHT22;198;48.752;9.180;2023-09-19T08:05:58;18.90;99.90
423;DHT22;198;48.752;9.180;2023-09-19T08:08:25;19.10;99.90
423;DHT22;198;48.752;9.180;2023-09-19T08:10:55;19.20;99.90
423;DHT22;198;48.752;9.180;2023-09-19T08:13:22;19.30;99.90
423;DHT22;198;48.752;9.180;2023-09-19T08:15:48;19.30;99.90
423;DHT22;198;48.752;9.180;2023-09-19T08:18:14;19.50;99.90
423;DHT22;198;48.752;9.180;2023-09-19T08:20:40;19.70;99.90
423;DHT22;198;48.752;9.180;2023-09-19T08:23:07;19.70;99.90
423;DHT22;198;48.752;9.180;2023-09-19T08:25:33;19.80;99.90
423;DHT22;198;48.752;9.180;2023-09-19T08:27:59;19.80;99.90
423;DHT22;198;48.752;9.180;2023-09-19T08:30:33;19.90;99.90
423;DHT22;198;48.752;9.180;2023-09-19T08:33:00;20.20;99.90
423;DHT22;198;48.752;9.180;2023-09-19T08:35:27;20.50;99.90
423;DHT22;198;48.752;9.180;2023-09-19T08:37:52;20.80;99.90
423;DHT22;198;48.752;9.180;2023-09-19T08:40:18;20.80;99.90
423;DHT22;198;48.752;9.180;2023-09-19T08:42:51;20.70;99.90
423;DHT22;198;48.752;9.180;2023-09-19T08:45:17;20.70;99.90
423;DHT22;198;48.752;9.180;2023-09-19T08:47:50;20.90;99.90
423;DHT22;198;48.752;9.180;2023-09-19T08:50:26;20.90;99.90
423;DHT22;198;48.752;9.180;2023-09-19T08:52:55;20.90;99.90
423;DHT22;198;48.752;9.180;2023-09-19T08:55:25;20.70;99.90
423;DHT22;198;48.752;9.180;2023-09-19T08:57:53;20.70;99.90
423;DHT22;198;48.752;9.180;2023-09-19T09:00:24;20.60;99.90
423;DHT22;198;48.752;9.180;2023-09-19T09:02:53;20.70;99.90
423;DHT22;198;48.752;9.180;2023-09-19T09:05:20;21.00;99.90
423;DHT22;198;48.752;9.180;2023-09-19T09:07:49;21.30;99.90
423;DHT22;198;48.752;9.180;2023-09-19T09:10:17;21.90;99.90
423;DHT22;198;48.752;9.180;2023-09-19T09:12:43;22.30;97.30
423;DHT22;198;48.752;9.180;2023-09-19T09:15:09;22.40;96.50
423;DHT22;198;48.752;9.180;2023-09-19T09:17:37;22.30;94.30
423;DHT22;198;48.752;9.180;2023-09-19T09:20:03;22.20;93.40
423;DHT22;198;48.752;9.180;2023-09-19T09:22:33;22.60;92.70
423;DHT22;198;48.752;9.180;2023-09-19T09:24:59;22.70;91.00
423;DHT22;198;48.752;9.180;2023-09-19T09:27:29;23.20;90.40
423;DHT22;198;48.752;9.180;2023-09-19T09:29:55;23.30;86.40
423;DHT22;198;48.752;9.180;2023-09-19T09:32:30;23.10;86.60
423;DHT22;198;48.752;9.180;2023-09-19T09:35:00;22.90;87.50
423;DHT22;198;48.752;9.180;2023-09-19T09:37:26;23.10;86.50
423;DHT22;198;48.752;9.180;2023-09-19T09:39:53;23.00;85.00
423;DHT22;198;48.752;9.180;2023-09-19T09:42:31;23.30;81.70
423;DHT22;198;48.752;9.180;2023-09-19T09:45:18;23.30;76.40
423;DHT22;198;48.752;9.180;2023-09-19T09:48:03;23.20;74.70
423;DHT22;198;48.752;9.180;2023-09-19T09:50:36;22.90;73.80
423;DHT22;198;48.752;9.180;2023-09-19T09:53:29;24.30;73.00
423;DHT22;198;48.752;9.180;2023-09-19T09:56:08;25.10;60.60
423;DHT22;198;48.752;9.180;2023-09-19T09:58:49;24.30;61.30
423;DHT22;198;48.752;9.180;2023-09-19T10:01:14;23.50;63.50
423;DHT22;198;48.752;9.180;2023-09-19T10:03:41;23.30;64.60
423;DHT22;198;48.752;9.180;2023-09-19T10:06:14;24.00;63.30
423;DHT22;198;48.752;9.180;2023-09-19T10:08:59;24.00;62.60
423;DHT22;198;48.752;9.180;2023-09-19T10:11:57;24.00;61.80
423;DHT22;198;48.752;9.180;2023-09-19T10:14:30;25.40;58.20
423;DHT22;198;48.752;9.180;2023-09-19T10:16:58;25.20;56.40
423;DHT22;198;48.752;9.180;2023-09-19T10:19:29;25.60;55.50
423;DHT22;198;48.752;9.180;2023-09-19T10:21:56;25.90;54.10
423;DHT22;198;48.752;9.180;2023-09-19T10:24:24;25.70;54.60
423;DHT22;198;48.752;9.180;2023-09-19T10:26:52;26.10;53.90
423;DHT22;198;48.752;9.180;2023-09-19T10:29:21;26.90;52.80
423;DHT22;198;48.752;9.180;2023-09-19T10:31:48;29.50;49.10
423;DHT22;198;48.752;9.180;2023-09-19T10:34:17;32.00;43.20
423;DHT22;198;48.752;9.180;2023-09-19T10:36:45;34.50;38.10
423;DHT22;198;48.752;9.180;2023-09-19T10:39:15;37.00;35.30
423;DHT22;198;48.752;9.180;2023-09-19T10:41:50;38.30;31.10
423;DHT22;198;48.752;9.180;2023-09-19T10:44:24;37.00;29.20
423;DHT22;198;48.752;9.180;2023-09-19T10:46:53;35.50;30.30
423;DHT22;198;48.752;9.180;2023-09-19T10:49:20;34.90;29.80
423;DHT22;198;48.752;9.180;2023-09-19T10:51:47;35.80;29.50
423;DHT22;198;48.752;9.180;2023-09-19T10:54:17;36.40;28.90
423;DHT22;198;48.752;9.180;2023-09-19T10:56:49;37.40;27.90
423;DHT22;198;48.752;9.180;2023-09-19T10:59:17;39.90;26.90
423;DHT22;198;48.752;9.180;2023-09-19T11:01:54;41.50;25.30
423;DHT22;198;48.752;9.180;2023-09-19T11:07:06;42.40;24.00
423;DHT22;198;48.752;9.180;2023-09-19T11:15:02;38.20;24.40
423;DHT22;198;48.752;9.180;2023-09-19T11:17:36;37.30;25.10
423;DHT22;198;48.752;9.180;2023-09-19T11:31:00;44.10;21.50
423;DHT22;198;48.752;9.180;2023-09-19T11:33:44;42.20;21.60
423;DHT22;198;48.752;9.180;2023-09-19T11:36:13;39.10;23.20
423;DHT22;198;48.752;9.180;2023-09-19T11:43:54;33.00;27.90
423;DHT22;198;48.752;9.180;2023-09-19T11:49:18;33.40;28.80
423;DHT22;198;48.752;9.180;2023-09-19T11:51:51;34.20;27.60
423;DHT22;198;48.752;9.180;2023-09-19T11:54:19;35.50;26.30
423;DHT22;198;48.752;9.180;2023-09-19T11:56:49;36.70;25.20
423;DHT22;198;48.752;9.180;2023-09-19T11:59:23;36.50;25.20
423;DHT22;198;48.752;9.180;2023-09-19T12:02:15;36.80;24.90
423;DHT22;198;48.752;9.180;2023-09-19T12:04:41;38.00;24.10
423;DHT22;198;48.752;9.180;2023-09-19T12:07:13;38.50;23.60
423;DHT22;198;48.752;9.180;2023-09-19T12:10:04;36.30;24.60
423;DHT22;198;48.752;9.180;2023-09-19T12:12:30;33.80;26.70
423;DHT22;198;48.752;9.180;2023-09-19T12:14:56;32.60;27.90
423;DHT22;198;48.752;9.180;2023-09-19T12:17:37;33.70;28.10
423;DHT22;198;48.752;9.180;2023-09-19T12:20:04;36.00;26.30
423;DHT22;198;48.752;9.180;2023-09-19T12:22:43;35.40;26.10
423;DHT22;198;48.752;9.180;2023-09-19T12:25:09;34.60;26.80
423;DHT22;198;48.752;9.180;2023-09-19T12:27:49;33.70;27.50
423;DHT22;198;48.752;9.180;2023-09-19T12:30:18;33.30;28.10
423;DHT22;198;48.752;9.180;2023-09-19T12:32:45;35.90;26.80
423;DHT22;198;48.752;9.180;2023-09-19T12:35:30;38.50;24.80
423;DHT22;198;48.752;9.180;2023-09-19T12:38:02;39.10;23.40
423;DHT22;198;48.752;9.180;2023-09-19T12:40:29;38.70;24.40
423;DHT22;198;48.752;9.180;2023-09-19T12:42:59;38.30;23.90
423;DHT22;198;48.752;9.180;2023-09-19T12:45:25;36.10;25.20
423;DHT22;198;48.752;9.180;2023-09-19T12:48:25;37.00;25.10
423;DHT22;198;48.752;9.180;2023-09-19T12:51:13;38.50;24.10
423;DHT22;198;48.752;9.180;2023-09-19T12:53:39;40.60;22.60
423;DHT22;198;48.752;9.180;2023-09-19T12:56:07;40.10;22.60
423;DHT22;198;48.752;9.180;2023-09-19T12:58:54;40.60;22.30
423;DHT22;198;48.752;9.180;2023-09-19T13:01:20;39.10;22.80
423;DHT22;198;48.752;9.180;2023-09-19T13:04:14;39.30;23.00
423;DHT22;198;48.752;9.180;2023-09-19T13:06:53;38.30;23.00
423;DHT22;198;48.752;9.180;2023-09-19T13:09:22;37.80;24.30
423;DHT22;198;48.752;9.180;2023-09-19T13:11:53;39.60;23.30
423;DHT22;198;48.752;9.180;2023-09-19T13:14:23;40.90;22.40
423;DHT22;198;48.752;9.180;2023-09-19T13:16:53;40.60;21.60
423;DHT22;198;48.752;9.180;2023-09-19T13:19:50;41.20;22.40
423;DHT22;198;48.752;9.180;2023-09-19T13:22:45;42.70;20.60
423;DHT22;198;48.752;9.180;2023-09-19T13:25:24;39.70;22.40
423;DHT22;198;48.752;9.180;2023-09-19T13:27:52;39.20;22.20
423;DHT22;198;48.752;9.180;2023-09-19T13:30:20;39.50;22.30
423;DHT22;198;48.752;9.180;2023-09-19T13:32:46;40.40;22.10
423;DHT22;198;48.752;9.180;2023-09-19T13:35:15;41.10;21.50
423;DHT22;198;48.752;9.180;2023-09-19T13:37:41;41.50;21.00
423;DHT22;198;48.752;9.180;2023-09-19T13:40:12;42.30;20.90
423;DHT22;198;48.752;9.180;2023-09-19T13:42:38;43.10;20.50
423;DHT22;198;48.752;9.180;2023-09-19T13:45:04;42.80;20.20
423;DHT22;198;48.752;9.180;2023-09-19T13:47:30;40.30;20.70
423;DHT22;198;48.752;9.180;2023-09-19T13:49:56;39.00;22.20
423;DHT22;198;48.752;9.180;2023-09-19T13:52:22;39.10;22.30
423;DHT22;198;48.752;9.180;2023-09-19T13:54:50;39.50;22.20
423;DHT22;198;48.752;9.180;2023-09-19T13:57:16;40.70;21.30
423;DHT22;198;48.752;9.180;2023-09-19T13:59:42;41.20;20.80
423;DHT22;198;48.752;9.180;2023-09-19T14:02:07;41.70;20.30
423;DHT22;198;48.752;9.180;2023-09-19T14:04:33;41.30;20.60
423;DHT22;198;48.752;9.180;2023-09-19T14:07:00;40.00;21.30
423;DHT22;198;48.752;9.180;2023-09-19T14:09:26;39.90;21.10
423;DHT22;198;48.752;9.180;2023-09-19T14:11:52;40.60;21.10
423;DHT22;198;48.752;9.180;2023-09-19T14:14:20;41.20;20.60
423;DHT22;198;48.752;9.180;2023-09-19T14:16:47;41.50;20.90
423;DHT22;198;48.752;9.180;2023-09-19T14:19:13;39.80;20.70
423;DHT22;198;48.752;9.180;2023-09-19T14:21:40;38.30;22.00
423;DHT22;198;48.752;9.180;2023-09-19T14:24:06;38.00;22.10
423;DHT22;198;48.752;9.180;2023-09-19T14:26:38;37.40;22.80
423;DHT22;198;48.752;9.180;2023-09-19T14:29:04;37.10;23.00
423;DHT22;198;48.752;9.180;2023-09-19T14:31:33;36.80;23.60
423;DHT22;198;48.752;9.180;2023-09-19T14:34:00;35.90;24.10
423;DHT22;198;48.752;9.180;2023-09-19T14:36:25;34.70;25.00
423;DHT22;198;48.752;9.180;2023-09-19T14:38:54;34.00;25.70
423;DHT22;198;48.752;9.180;2023-09-19T14:41:20;33.90;26.40
423;DHT22;198;48.752;9.180;2023-09-19T14:43:46;34.60;25.70
423;DHT22;198;48.752;9.180;2023-09-19T14:46:11;34.60;25.20
423;DHT22;198;48.752;9.180;2023-09-19T14:48:37;35.10;25.00
423;DHT22;198;48.752;9.180;2023-09-19T14:51:06;36.70;23.80
423;DHT22;198;48.752;9.180;2023-09-19T14:53:34;37.20;23.20
423;DHT22;198;48.752;9.180;2023-09-19T14:56:01;37.20;22.60
423;DHT22;198;48.752;9.180;2023-09-19T14:58:29;36.90;22.40
423;DHT22;198;48.752;9.180;2023-09-19T15:01:05;36.00;22.70
423;DHT22;198;48.752;9.180;2023-09-19T15:03:32;35.90;23.10
423;DHT22;198;48.752;9.180;2023-09-19T15:06:02;36.20;22.90
423;DHT22;198;48.752;9.180;2023-09-19T15:08:30;36.20;23.10
423;DHT22;198;48.752;9.180;2023-09-19T15:10:55;34.90;23.90
423;DHT22;198;48.752;9.180;2023-09-19T15:13:21;33.70;24.30
423;DHT22;198;48.752;9.180;2023-09-19T15:15:46;33.10;25.60
423;DHT22;198;48.752;9.180;2023-09-19T15:18:13;33.10;25.70
423;DHT22;198;48.752;9.180;2023-09-19T15:20:45;33.50;25.40
423;DHT22;198;48.752;9.180;2023-09-19T15:23:12;34.20;25.30
423;DHT22;198;48.752;9.180;2023-09-19T15:25:38;34.80;24.60
423;DHT22;198;48.752;9.180;2023-09-19T15:28:05;35.00;24.70
423;DHT22;198;48.752;9.180;2023-09-19T15:30:39;34.40;24.90
423;DHT22;198;48.752;9.180;2023-09-19T15:33:05;33.50;25.60
423;DHT22;198;48.752;9.180;2023-09-19T15:35:30;32.70;26.00
423;DHT22;198;48.752;9.180;2023-09-19T15:37:56;32.70;26.40
423;DHT22;198;48.752;9.180;2023-09-19T15:40:23;33.20;25.80
423;DHT22;198;48.752;9.180;2023-09-19T15:42:49;33.70;25.40
423;DHT22;198;48.752;9.180;2023-09-19T15:45:15;34.40;25.30
423;DHT22;198;48.752;9.180;2023-09-19T15:47:42;34.80;24.60
423;DHT22;198;48.752;9.180;2023-09-19T15:50:08;33.80;25.10
423;DHT22;198;48.752;9.180;2023-09-19T15:52:39;33.30;25.60
423;DHT22;198;48.752;9.180;2023-09-19T15:55:05;33.30;25.90
423;DHT22;198;48.752;9.180;2023-09-19T15:57:32;33.40;26.00
423;DHT22;198;48.752;9.180;2023-09-19T15:59:59;33.10;25.90
423;DHT22;198;48.752;9.180;2023-09-19T16:02:25;32.80;26.00
423;DHT22;198;48.752;9.180;2023-09-19T16:04:54;32.40;26.30
423;DHT22;198;48.752;9.180;2023-09-19T16:07:20;32.10;26.80
423;DHT22;198;48.752;9.180;2023-09-19T16:09:46;32.00;27.20
423;DHT22;198;48.752;9.180;2023-09-19T16:12:11;31.90;27.10
423;DHT22;198;48.752;9.180;2023-09-19T16:14:39;32.20;27.10
423;DHT22;198;48.752;9.180;2023-09-19T16:17:05;32.40;27.00
423;DHT22;198;48.752;9.180;2023-09-19T16:19:33;32.60;26.90
423;DHT22;198;48.752;9.180;2023-09-19T16:21:58;32.50;27.20
423;DHT22;198;48.752;9.180;2023-09-19T16:24:25;32.20;27.40
423;DHT22;198;48.752;9.180;2023-09-19T16:26:51;31.50;28.10
423;DHT22;198;48.752;9.180;2023-09-19T16:29:18;30.70;28.80
423;DHT22;198;48.752;9.180;2023-09-19T16:31:44;30.20;29.50
423;DHT22;198;48.752;9.180;2023-09-19T16:34:10;30.00;29.70
423;DHT22;198;48.752;9.180;2023-09-19T16:36:35;30.20;29.80
423;DHT22;198;48.752;9.180;2023-09-19T16:39:01;30.20;29.70
423;DHT22;198;48.752;9.180;2023-09-19T16:41:28;29.70;30.00
423;DHT22;198;48.752;9.180;2023-09-19T16:43:54;28.90;31.20
423;DHT22;198;48.752;9.180;2023-09-19T16:46:19;28.00;32.50
423;DHT22;198;48.752;9.180;2023-09-19T16:48:46;27.20;33.50
423;DHT22;198;48.752;9.180;2023-09-19T16:51:15;26.50;34.60
423;DHT22;198;48.752;9.180;2023-09-19T16:53:41;25.80;35.80
423;DHT22;198;48.752;9.180;2023-09-19T16:56:09;25.20;36.90
423;DHT22;198;48.752;9.180;2023-09-19T16:58:39;24.70;38.30
423;DHT22;198;48.752;9.180;2023-09-19T17:01:12;24.20;38.90
423;DHT22;198;48.752;9.180;2023-09-19T17:03:42;23.80;39.80
423;DHT22;198;48.752;9.180;2023-09-19T17:06:09;23.50;40.30
423;DHT22;198;48.752;9.180;2023-09-19T17:08:36;23.30;41.20
423;DHT22;198;48.752;9.180;2023-09-19T17:11:09;23.00;41.80
423;DHT22;198;48.752;9.180;2023-09-19T17:13:35;22.80;42.30
423;DHT22;198;48.752;9.180;2023-09-19T17:16:20;22.50;43.00
423;DHT22;198;48.752;9.180;2023-09-19T17:18:52;22.30;43.80
423;DHT22;198;48.752;9.180;2023-09-19T17:21:18;22.10;44.40